Mashhad, Iran
Current Conditions -  °F | °C
As of 12:00 PM on Friday 24 Oct 2014 (Local Time) from OIMM Reporting Station
Clear Clear  
Wind Chill: 73°   Ceiling: Unl
Heat Index: 73°   Visibility: 6mi
Dew Point: 39°   Wind: 12mph
Humidity: 29%   Direction: 330°NNW
Pressure: 29.97"   Gusts: NA
Location:  36.27°N, 59.57°E
Report Text: OIMM 240800Z 33010KT CAVOK 23/04 Q1015 A3000
Loading
Personal Weather Stations






























Interactive Weather Map
Tropical Storm Tracking
New forecast layout! Learn more

10-Day Weather Forecast

Advertisements
Track Severe Weather on mobile